createdAt,value
2023-02-21T00:02:46.081Z,0.00
2023-02-21T00:05:33.074Z,0.00
2023-02-21T00:08:20.097Z,0.00
2023-02-21T00:11:06.785Z,0.00
2023-02-21T00:13:57.573Z,0.00
2023-02-21T00:16:44.477Z,0.00
2023-02-21T00:19:31.777Z,0.00
2023-02-21T00:22:18.481Z,0.00
2023-02-21T00:25:04.848Z,0.00
2023-02-21T00:27:52.111Z,0.00
2023-02-21T00:30:40.551Z,0.00
2023-02-21T00:33:27.212Z,0.00
2023-02-21T00:36:15.097Z,0.00
2023-02-21T00:39:02.027Z,0.00
2023-02-21T00:41:48.676Z,0.00
2023-02-21T00:44:35.509Z,0.00
2023-02-21T00:47:22.891Z,0.00
2023-02-21T00:50:09.387Z,0.00
2023-02-21T00:52:57.645Z,0.00
2023-02-21T00:55:44.376Z,0.00
2023-02-21T00:58:31.126Z,0.00
2023-02-21T01:01:17.882Z,0.00
2023-02-21T01:04:04.605Z,0.00
2023-02-21T01:06:51.727Z,0.00
2023-02-21T01:09:38.382Z,0.00
2023-02-21T01:12:24.927Z,0.00
2023-02-21T01:15:11.941Z,0.00
2023-02-21T01:17:58.680Z,0.00
2023-02-21T01:20:46.478Z,0.00
2023-02-21T01:23:33.562Z,0.00
2023-02-21T01:26:20.923Z,0.00
2023-02-21T01:29:08.611Z,0.00
2023-02-21T01:31:55.413Z,0.00
2023-02-21T01:34:42.275Z,0.00
2023-02-21T01:37:29.058Z,0.00
2023-02-21T01:40:15.749Z,0.00
2023-02-21T01:43:03.289Z,0.00
2023-02-21T01:45:56.132Z,0.00
2023-02-21T01:48:42.933Z,0.00
2023-02-21T01:51:30.510Z,0.00
2023-02-21T01:54:17.448Z,0.00
2023-02-21T01:57:04.202Z,0.00
2023-02-21T01:59:51.724Z,0.00
2023-02-21T02:02:52.708Z,0.00
2023-02-21T02:05:39.603Z,0.00
2023-02-21T02:08:26.655Z,0.00
2023-02-21T02:11:22.547Z,0.00
2023-02-21T02:14:24.851Z,0.00
2023-02-21T02:16:53.122Z,0.00
2023-02-21T02:19:25.579Z,0.00
2023-02-21T02:22:38.557Z,0.00
2023-02-21T02:25:30.034Z,0.00
2023-02-21T02:28:32.100Z,0.00
2023-02-21T02:31:13.846Z,0.00
2023-02-21T02:34:20.515Z,0.00
2023-02-21T02:37:02.868Z,0.00
2023-02-21T02:39:42.375Z,0.00
2023-02-21T02:42:23.691Z,0.00
2023-02-21T02:44:54.733Z,0.00
2023-02-21T02:47:25.517Z,0.00
2023-02-21T02:49:53.368Z,0.00
2023-02-21T02:52:21.333Z,0.00
2023-02-21T02:54:59.916Z,0.00
2023-02-21T02:57:29.604Z,0.00
2023-02-21T02:59:57.511Z,0.00
2023-02-21T03:02:52.343Z,0.00
2023-02-21T03:05:42.379Z,0.00
2023-02-21T03:08:28.304Z,0.00
2023-02-21T03:11:16.453Z,0.00
2023-02-21T03:13:49.330Z,0.00
2023-02-21T03:16:30.235Z,0.00
2023-02-21T03:19:05.037Z,0.00
2023-02-21T03:21:37.112Z,0.00
2023-02-21T03:24:05.342Z,0.00
2023-02-21T03:26:36.190Z,0.00
2023-02-21T03:29:18.430Z,0.00
2023-02-21T03:31:49.424Z,0.00
2023-02-21T03:34:17.366Z,0.00
2023-02-21T03:36:45.347Z,0.00
2023-02-21T03:39:15.105Z,0.00
2023-02-21T03:41:43.329Z,0.00
2023-02-21T03:44:11.725Z,0.00
2023-02-21T04:13:24.534Z,0.00
2023-02-21T04:15:54.607Z,0.00
2023-02-21T04:18:23.345Z,0.00
2023-02-21T04:20:52.753Z,0.00
2023-02-21T04:23:22.546Z,0.00
2023-02-21T04:25:50.722Z,0.00
2023-02-21T04:28:35.839Z,0.00
2023-02-21T04:31:04.051Z,0.69
2023-02-21T04:33:32.395Z,2.40
2023-02-21T04:36:00.352Z,3.83
2023-02-21T04:38:40.873Z,5.46
2023-02-21T04:41:09.358Z,6.40
2023-02-21T04:43:38.108Z,7.34
2023-02-21T04:46:06.517Z,8.46
2023-02-21T04:48:34.418Z,9.87
2023-02-21T04:51:14.790Z,11.29
2023-02-21T04:53:48.313Z,12.72
2023-02-21T04:56:18.646Z,13.89
2023-02-21T04:58:46.954Z,14.92
2023-02-21T05:01:16.493Z,15.99
2023-02-21T05:03:44.579Z,16.85
2023-02-21T05:06:22.761Z,17.78
2023-02-21T05:08:50.886Z,18.77
2023-02-21T05:11:19.723Z,19.75
2023-02-21T05:13:48.025Z,20.65
2023-02-21T05:16:16.460Z,21.61
2023-02-21T05:18:45.255Z,22.52
2023-02-21T05:21:13.918Z,23.28
2023-02-21T05:23:42.982Z,24.14
2023-02-21T05:26:12.252Z,24.98
2023-02-21T05:28:41.151Z,25.90
2023-02-21T05:31:09.194Z,26.78
2023-02-21T05:33:37.351Z,27.88
2023-02-21T05:36:05.930Z,28.82
2023-02-21T05:38:44.376Z,29.74
2023-02-21T05:41:12.839Z,30.80
2023-02-21T05:43:46.316Z,32.00
2023-02-21T05:46:25.338Z,32.91
2023-02-21T05:48:53.975Z,34.07
2023-02-21T05:51:22.473Z,35.21
2023-02-21T05:53:57.264Z,36.41
2023-02-21T05:56:25.485Z,37.34
2023-02-21T05:58:54.053Z,38.45
2023-02-21T06:01:21.959Z,37.79
2023-02-21T06:03:50.036Z,38.02
2023-02-21T06:06:18.207Z,38.48
2023-02-21T06:08:47.650Z,38.68
2023-02-21T06:11:18.920Z,39.07
2023-02-21T06:13:50.461Z,39.87
2023-02-21T06:16:18.324Z,40.61
2023-02-21T06:18:50.107Z,40.91
2023-02-21T06:21:18.012Z,41.28
2023-02-21T06:23:46.178Z,42.61
2023-02-21T06:26:15.866Z,46.10
2023-02-21T06:28:43.937Z,50.25
2023-02-21T06:31:11.997Z,53.50
2023-02-21T06:33:40.190Z,56.17
2023-02-21T06:36:10.791Z,56.38
2023-02-21T06:38:39.216Z,56.21
2023-02-21T06:41:08.484Z,56.36
2023-02-21T06:43:36.813Z,56.88
2023-02-21T06:46:05.106Z,57.86
2023-02-21T06:54:14.000Z,58.92
2023-02-21T06:56:42.101Z,58.80
2023-02-21T06:59:10.287Z,59.82
2023-02-21T07:01:38.603Z,60.36
2023-02-21T07:04:06.705Z,60.17
2023-02-21T07:06:35.819Z,59.57
2023-02-21T07:09:05.283Z,59.04
2023-02-21T07:11:35.185Z,58.79
2023-02-21T07:14:03.361Z,58.64
2023-02-21T07:16:32.399Z,58.41
2023-02-21T07:19:00.651Z,58.09
2023-02-21T07:21:28.710Z,57.51
2023-02-21T07:23:58.139Z,56.82
2023-02-21T07:26:26.150Z,55.96
2023-02-21T07:28:54.299Z,55.77
2023-02-21T07:31:22.558Z,55.61
2023-02-21T07:33:50.575Z,55.81
2023-02-21T07:36:18.490Z,57.41
2023-02-21T07:38:46.427Z,59.83
2023-02-21T07:41:15.294Z,60.13
2023-02-21T07:43:43.772Z,60.03
2023-02-21T07:46:13.003Z,59.98
2023-02-21T07:48:41.323Z,59.88
2023-02-21T07:51:10.002Z,60.87
2023-02-21T07:53:38.494Z,62.41
2023-02-21T07:56:08.370Z,62.73
2023-02-21T07:58:39.629Z,63.16
2023-02-21T08:01:07.729Z,63.85
2023-02-21T08:03:37.855Z,63.48
2023-02-21T08:06:05.896Z,63.14
2023-02-21T08:08:34.356Z,63.36
2023-02-21T08:11:02.290Z,63.86
2023-02-21T08:13:30.592Z,64.07
2023-02-21T08:15:58.815Z,63.62
2023-02-21T08:18:30.006Z,62.87
2023-02-21T08:20:58.402Z,62.23
2023-02-21T08:23:26.385Z,61.79
2023-02-21T08:25:54.584Z,61.27
2023-02-21T08:28:22.410Z,60.68
2023-02-21T08:30:50.782Z,60.03
2023-02-21T08:33:20.621Z,59.57
2023-02-21T08:35:48.660Z,59.30
2023-02-21T08:38:19.152Z,59.07
2023-02-21T08:40:52.960Z,59.22
2023-02-21T08:43:20.855Z,59.38
2023-02-21T08:45:48.829Z,58.85
2023-02-21T08:48:20.014Z,58.75
2023-02-21T08:50:48.169Z,58.52
2023-02-21T08:53:16.324Z,57.95
2023-02-21T08:55:44.505Z,57.46
2023-02-21T08:58:13.393Z,57.31
2023-02-21T09:00:41.699Z,57.11
2023-02-21T09:03:09.665Z,56.78
2023-02-21T09:05:37.796Z,56.34
2023-02-21T09:08:05.938Z,55.70
2023-02-21T09:10:34.664Z,55.22
2023-02-21T09:13:03.727Z,54.74
2023-02-21T09:15:34.508Z,53.51
2023-02-21T09:18:02.697Z,52.23
2023-02-21T09:20:30.784Z,51.17
2023-02-21T09:22:59.062Z,51.21
2023-02-21T09:25:27.188Z,51.60
2023-02-21T09:27:56.614Z,52.34
2023-02-21T09:30:26.962Z,52.91
2023-02-21T09:32:56.556Z,53.18
2023-02-21T09:38:42.045Z,53.33
2023-02-21T09:41:13.897Z,53.07
2023-02-21T09:43:52.933Z,52.95
2023-02-21T09:46:21.840Z,52.95
2023-02-21T09:48:49.930Z,53.03
2023-02-21T09:51:18.211Z,52.97
2023-02-21T09:53:48.181Z,53.36
2023-02-21T09:56:34.208Z,53.73
2023-02-21T09:59:04.729Z,53.73
2023-02-21T10:01:57.811Z,53.81
2023-02-21T10:04:52.622Z,53.55
2023-02-21T10:07:40.781Z,53.46
2023-02-21T10:10:31.328Z,52.55
2023-02-21T10:13:11.536Z,51.30
2023-02-21T10:15:47.453Z,50.30
2023-02-21T10:18:35.459Z,48.72
2023-02-21T10:21:07.124Z,47.26
2023-02-21T10:23:55.423Z,46.10
2023-02-21T10:26:26.161Z,45.48
2023-02-21T10:28:56.771Z,45.64
2023-02-21T10:31:35.709Z,45.52
2023-02-21T10:34:05.308Z,45.07
2023-02-21T10:36:33.461Z,45.02
2023-02-21T10:39:43.897Z,44.99
2023-02-21T10:42:14.364Z,43.58
2023-02-21T10:44:43.007Z,41.10
2023-02-21T10:47:17.031Z,38.09
2023-02-21T10:49:56.402Z,36.78
2023-02-21T10:52:24.620Z,36.62
2023-02-21T10:55:13.353Z,36.79
2023-02-21T10:57:59.080Z,37.29
2023-02-21T11:00:42.161Z,36.87
2023-02-21T11:03:19.475Z,36.23
2023-02-21T11:05:51.565Z,35.93
2023-02-21T11:08:40.133Z,35.39
2023-02-21T11:11:08.578Z,33.81
2023-02-21T11:13:36.901Z,32.57
2023-02-21T11:16:11.563Z,31.38
2023-02-21T11:18:40.139Z,30.78
2023-02-21T11:22:44.094Z,29.98
2023-02-21T11:25:28.313Z,29.64
2023-02-21T11:28:25.731Z,29.51
2023-02-21T11:31:01.520Z,29.32
2023-02-21T11:33:29.649Z,29.27
2023-02-21T11:36:15.656Z,29.30
2023-02-21T11:38:47.376Z,29.52
2023-02-21T11:41:30.023Z,29.11
2023-02-21T11:43:58.459Z,28.94
2023-02-21T11:46:42.964Z,28.70
2023-02-21T11:49:14.324Z,28.39
2023-02-21T11:51:47.452Z,27.80
2023-02-21T11:54:16.603Z,27.33
2023-02-21T11:56:54.439Z,26.76
2023-02-21T11:59:30.849Z,26.19
2023-02-21T12:02:37.571Z,25.25
2023-02-21T12:05:24.338Z,24.59
2023-02-21T12:07:59.015Z,24.21
2023-02-21T12:10:44.323Z,24.46
2023-02-21T12:13:36.634Z,24.72
2023-02-21T12:16:32.536Z,25.37
2023-02-21T12:19:25.890Z,25.68
2023-02-21T12:22:02.247Z,26.14
2023-02-21T12:24:56.132Z,26.93
2023-02-21T12:27:45.245Z,29.18
2023-02-21T12:30:38.098Z,30.52
2023-02-21T12:33:27.432Z,31.57
2023-02-21T12:36:12.726Z,32.16
2023-02-21T12:39:00.862Z,31.85
2023-02-21T12:42:03.166Z,32.05
2023-02-21T12:44:55.773Z,31.50
2023-02-21T12:47:36.783Z,31.31
2023-02-21T12:50:43.998Z,31.56
2023-02-21T12:53:16.213Z,30.87
2023-02-21T12:56:07.080Z,30.44
2023-02-21T12:58:43.135Z,30.26
2023-02-21T13:01:16.151Z,29.95
2023-02-21T13:04:06.687Z,29.49
2023-02-21T13:06:39.109Z,29.01
2023-02-21T13:09:07.023Z,28.41
2023-02-21T13:11:44.995Z,28.05
2023-02-21T13:14:27.480Z,27.45
2023-02-21T13:16:59.362Z,27.27
2023-02-21T13:19:40.578Z,27.18
2023-02-21T13:22:50.618Z,27.06
2023-02-21T13:26:16.190Z,26.85
2023-02-21T13:28:46.607Z,26.88
2023-02-21T13:31:29.127Z,26.54
2023-02-21T13:34:01.089Z,26.26
2023-02-21T13:36:38.471Z,25.80
2023-02-21T13:39:09.552Z,25.43
2023-02-21T13:41:46.807Z,25.06
2023-02-21T13:44:34.593Z,24.61
2023-02-21T13:47:07.107Z,25.00
2023-02-21T13:49:48.584Z,25.13
2023-02-21T13:52:19.798Z,25.31
2023-02-21T13:55:19.475Z,25.08
2023-02-21T13:57:54.373Z,24.98
2023-02-21T14:00:25.333Z,24.60
2023-02-21T14:03:06.193Z,24.40
2023-02-21T14:05:50.349Z,23.91
2023-02-21T14:08:31.917Z,23.42
2023-02-21T14:11:06.681Z,23.73
2023-02-21T14:13:54.714Z,23.20
2023-02-21T14:16:34.660Z,22.37
2023-02-21T14:19:10.813Z,21.18
2023-02-21T14:21:46.959Z,19.87
2023-02-21T14:24:26.726Z,19.57
2023-02-21T14:26:59.739Z,19.40
2023-02-21T14:29:33.145Z,19.40
2023-02-21T14:32:02.729Z,19.12
2023-02-21T14:34:35.368Z,19.04
2023-02-21T14:37:16.713Z,18.88
2023-02-21T14:39:47.770Z,18.75
2023-02-21T14:42:44.170Z,18.68
2023-02-21T14:45:12.836Z,18.60
2023-02-21T14:48:30.175Z,18.50
2023-02-21T14:51:04.842Z,18.45
2023-02-21T14:53:42.781Z,18.09
2023-02-21T14:56:32.801Z,17.70
2023-02-21T14:59:17.502Z,17.14
2023-02-21T15:02:09.034Z,16.76
2023-02-21T15:04:41.717Z,16.06
2023-02-21T15:07:41.320Z,14.95
2023-02-21T15:10:22.725Z,13.81
2023-02-21T15:12:55.188Z,12.55
2023-02-21T15:15:26.825Z,11.50
2023-02-21T15:18:07.521Z,10.65
2023-02-21T15:20:40.140Z,10.11
2023-02-21T15:23:14.044Z,9.70
2023-02-21T15:25:43.360Z,9.06
2023-02-21T15:28:22.218Z,8.46
2023-02-21T15:31:00.682Z,7.94
2023-02-21T15:33:34.338Z,7.60
2023-02-21T15:36:09.114Z,7.41
2023-02-21T15:38:43.924Z,7.53
2023-02-21T15:41:41.942Z,7.56
2023-02-21T15:44:22.890Z,7.62
2023-02-21T15:47:15.710Z,7.74
2023-02-21T15:49:57.313Z,7.90
2023-02-21T15:52:46.765Z,7.99
2023-02-21T15:55:24.366Z,8.45
2023-02-21T15:58:07.620Z,8.45
2023-02-21T16:00:39.685Z,8.69
2023-02-21T16:03:27.452Z,8.63
2023-02-21T16:06:16.135Z,8.59
2023-02-21T16:09:24.505Z,8.61
2023-02-21T16:12:36.209Z,8.83
2023-02-21T16:15:31.216Z,8.35
2023-02-21T16:18:03.800Z,8.17
2023-02-21T16:20:35.615Z,8.00
2023-02-21T16:23:26.719Z,7.73
2023-02-21T16:26:23.796Z,7.23
2023-02-21T16:28:51.668Z,6.80
2023-02-21T16:31:33.170Z,6.86
2023-02-21T16:34:01.698Z,6.75
2023-02-21T16:36:31.326Z,6.32
2023-02-21T16:38:59.336Z,5.76
2023-02-21T16:41:27.620Z,4.90
2023-02-21T16:43:55.779Z,3.85
2023-02-21T16:46:27.700Z,3.28
2023-02-21T16:49:00.049Z,2.84
2023-02-21T16:51:33.760Z,2.53
2023-02-21T16:54:04.038Z,2.18
2023-02-21T16:56:32.429Z,1.81
2023-02-21T16:59:09.843Z,1.50
2023-02-21T17:01:40.198Z,1.35
2023-02-21T17:04:21.405Z,1.42
2023-02-21T17:07:01.880Z,1.54
2023-02-21T17:09:33.596Z,1.41
2023-02-21T17:12:01.559Z,1.15
2023-02-21T17:14:29.745Z,0.96
2023-02-21T17:16:59.380Z,0.57
2023-02-21T17:19:27.360Z,0.24
2023-02-21T17:21:58.261Z,0.03
2023-02-21T17:24:26.512Z,0.00
2023-02-21T17:26:54.712Z,0.00
2023-02-21T17:29:22.672Z,0.00
2023-02-21T17:31:54.759Z,0.00
2023-02-21T17:34:22.981Z,0.00
2023-02-21T17:36:52.019Z,0.00
2023-02-21T17:39:20.387Z,0.00
2023-02-21T17:41:48.990Z,0.02
2023-02-21T17:44:18.134Z,0.28
2023-02-21T17:46:49.673Z,1.02
2023-02-21T17:49:18.428Z,1.12
2023-02-21T17:51:49.431Z,1.35
2023-02-21T17:54:18.526Z,1.41
2023-02-21T17:56:46.424Z,1.46
2023-02-21T17:59:14.372Z,1.47
2023-02-21T18:01:43.421Z,1.37
2023-02-21T18:04:11.592Z,1.55
2023-02-21T18:06:40.351Z,1.82
2023-02-21T18:09:08.433Z,2.02
2023-02-21T18:11:39.306Z,2.19
2023-02-21T18:14:07.216Z,2.57
2023-02-21T18:16:35.262Z,3.45
2023-02-21T18:19:03.619Z,5.85
2023-02-21T18:21:33.798Z,5.69
2023-02-21T18:24:01.612Z,6.03
2023-02-21T18:26:29.964Z,6.50
2023-02-21T18:28:58.628Z,6.40
2023-02-21T18:31:26.732Z,6.07
2023-02-21T18:33:55.109Z,5.99
2023-02-21T18:36:23.016Z,5.82
2023-02-21T18:38:51.504Z,5.68
2023-02-21T18:41:20.654Z,5.67
2023-02-21T18:43:49.757Z,5.68
2023-02-21T18:46:20.270Z,5.27
2023-02-21T18:48:52.291Z,4.89
2023-02-21T18:51:20.428Z,4.30
2023-02-21T18:53:48.892Z,3.90
2023-02-21T18:56:21.678Z,3.87
2023-02-21T18:58:49.762Z,3.90
2023-02-21T19:01:19.481Z,3.78
2023-02-21T19:03:50.826Z,3.44
2023-02-21T19:06:19.254Z,3.78
2023-02-21T19:08:51.609Z,3.62
2023-02-21T19:11:19.587Z,3.54
2023-02-21T19:13:50.517Z,3.04
2023-02-21T19:16:19.812Z,2.95
2023-02-21T19:18:50.445Z,2.72
2023-02-21T19:21:23.083Z,2.20
2023-02-21T19:23:51.388Z,2.08
2023-02-21T19:26:19.694Z,1.67
2023-02-21T19:28:47.848Z,1.29
2023-02-21T19:31:19.862Z,0.68
2023-02-21T19:33:48.026Z,0.09
2023-02-21T19:36:16.527Z,0.00
2023-02-21T19:38:44.489Z,0.00
2023-02-21T19:41:12.552Z,0.00
2023-02-21T19:43:42.791Z,0.00
2023-02-21T19:46:25.053Z,0.00
2023-02-21T19:48:59.878Z,0.00
2023-02-21T19:51:29.139Z,0.00
2023-02-21T19:54:01.662Z,0.00
2023-02-21T19:56:29.856Z,0.00
2023-02-21T19:58:58.344Z,0.00
2023-02-21T20:01:27.063Z,0.00
2023-02-21T20:03:55.091Z,0.00
2023-02-21T20:06:27.842Z,0.00
2023-02-21T20:08:56.513Z,0.00
2023-02-21T20:11:25.709Z,0.00
2023-02-21T20:13:54.011Z,0.00
2023-02-21T20:16:22.804Z,0.00
2023-02-21T20:18:54.388Z,0.00
2023-02-21T20:21:27.091Z,0.00
2023-02-21T20:23:55.432Z,0.00
2023-02-21T20:26:23.925Z,0.00
2023-02-21T20:28:52.460Z,0.00
2023-02-21T20:31:21.408Z,0.00
2023-02-21T20:33:49.439Z,0.00
2023-02-21T20:36:18.736Z,0.00
2023-02-21T20:38:46.670Z,0.00
2023-02-21T20:41:15.888Z,0.00
2023-02-21T20:43:44.206Z,0.00
2023-02-21T20:49:17.208Z,0.00
2023-02-21T20:51:45.397Z,0.00
2023-02-21T20:54:22.104Z,0.00
2023-02-21T20:56:53.908Z,0.00
2023-02-21T20:59:27.243Z,0.00
2023-02-21T21:01:58.929Z,0.00
2023-02-21T21:04:29.910Z,0.00
2023-02-21T21:07:00.639Z,0.00
2023-02-21T21:09:34.645Z,0.00
2023-02-21T21:12:37.086Z,0.00
2023-02-21T21:15:06.415Z,0.00
2023-02-21T21:17:35.687Z,0.00
2023-02-21T21:20:09.063Z,0.00
2023-02-21T21:22:36.980Z,0.00
2023-02-21T21:25:05.048Z,0.00
2023-02-21T21:27:33.084Z,0.00
2023-02-21T21:30:01.858Z,0.00
2023-02-21T21:32:29.914Z,0.00
2023-02-21T21:34:58.292Z,0.00
2023-02-21T21:37:27.720Z,0.00
2023-02-21T21:39:55.923Z,0.00
2023-02-21T21:42:28.988Z,0.00
2023-02-21T21:44:57.177Z,0.00
2023-02-21T21:47:32.050Z,0.00
2023-02-21T21:50:02.570Z,0.00
2023-02-21T21:52:30.985Z,0.00
2023-02-21T21:54:59.147Z,0.00
2023-02-21T21:57:27.372Z,0.00
2023-02-21T21:59:55.886Z,0.00
2023-02-21T22:02:23.904Z,0.00
2023-02-21T22:04:55.269Z,0.00
2023-02-21T22:07:23.207Z,0.00
2023-02-21T22:09:51.128Z,0.00
2023-02-21T22:12:19.080Z,0.00
2023-02-21T22:14:49.928Z,0.00
2023-02-21T22:17:18.897Z,0.00
2023-02-21T22:19:46.987Z,0.00
2023-02-21T22:22:16.144Z,0.00
2023-02-21T22:24:43.981Z,0.00
2023-02-21T22:27:11.871Z,0.00
2023-02-21T22:29:42.905Z,0.00
2023-02-21T22:32:10.903Z,0.00
2023-02-21T22:34:38.826Z,0.00
2023-02-21T22:37:06.813Z,0.00
2023-02-21T22:39:34.934Z,0.00
2023-02-21T22:42:05.411Z,0.00
2023-02-21T22:44:33.447Z,0.00
2023-02-21T22:47:01.433Z,0.00
2023-02-21T22:49:30.753Z,0.00
2023-02-21T22:51:58.671Z,0.00
2023-02-21T22:54:31.739Z,0.00
2023-02-21T22:57:01.725Z,0.00
2023-02-21T22:59:29.725Z,0.00
2023-02-21T23:02:00.911Z,0.00
2023-02-21T23:04:31.032Z,0.00
2023-02-21T23:06:59.210Z,0.00
2023-02-21T23:09:29.398Z,0.00
2023-02-21T23:12:00.771Z,0.00
2023-02-21T23:14:34.778Z,0.00
2023-02-21T23:17:03.212Z,0.00
2023-02-21T23:19:32.340Z,0.00
2023-02-21T23:22:00.529Z,0.00
2023-02-21T23:24:29.864Z,0.00
2023-02-21T23:26:58.190Z,0.00
2023-02-21T23:29:27.801Z,0.00
2023-02-21T23:32:09.407Z,0.00
2023-02-21T23:34:41.063Z,0.00
2023-02-21T23:37:12.196Z,0.00
2023-02-21T23:39:41.711Z,0.00
2023-02-21T23:42:11.121Z,0.00
2023-02-21T23:44:41.298Z,0.00
2023-02-21T23:47:09.949Z,0.00
2023-02-21T23:49:44.160Z,0.00
2023-02-21T23:52:12.235Z,0.00
2023-02-21T23:54:41.575Z,0.00
2023-02-21T23:57:09.584Z,0.00
2023-02-21T23:59:37.835Z,0.00
